RJCW(METAR)
05/26 18:00
METAR RJCW 260900Z 22010KT 9999 FEW010 BKN012 10/08 Q1006 RMK 1ST010
7ST012 A2973=
戻る
トップページへ戻る
IMOC Co,.Ltd.